createdAt,value
2018-12-11T00:01:33.722Z,8.63
2018-12-11T00:06:29.508Z,9.03
2018-12-11T00:11:25.283Z,11.20
2018-12-11T00:16:21.047Z,7.63
2018-12-11T00:21:16.804Z,9.17
2018-12-11T00:26:12.590Z,7.03
2018-12-11T00:31:08.379Z,9.10
2018-12-11T00:36:04.164Z,8.57
2018-12-11T00:40:59.926Z,7.07
2018-12-11T00:45:55.715Z,7.27
2018-12-11T00:50:51.511Z,6.60
2018-12-11T00:55:47.319Z,5.20
2018-12-11T01:00:43.079Z,10.87
2018-12-11T01:05:38.843Z,5.63
2018-12-11T01:10:34.666Z,7.57
2018-12-11T01:15:30.442Z,7.83
2018-12-11T01:20:26.219Z,7.03
2018-12-11T01:25:21.974Z,7.47
2018-12-11T01:30:17.759Z,10.80
2018-12-11T01:35:13.510Z,7.83
2018-12-11T01:40:09.323Z,11.27
2018-12-11T01:45:05.275Z,4.87
2018-12-11T01:50:01.052Z,8.83
2018-12-11T01:54:56.845Z,6.73
2018-12-11T01:59:52.634Z,7.20
2018-12-11T02:04:48.414Z,5.93
2018-12-11T02:09:44.199Z,6.70
2018-12-11T02:14:39.987Z,9.70
2018-12-11T02:19:35.831Z,12.43
2018-12-11T02:24:31.642Z,7.43
2018-12-11T02:29:27.448Z,7.00
2018-12-11T02:34:23.291Z,4.97
2018-12-11T02:39:19.069Z,6.53
2018-12-11T02:44:14.856Z,9.10
2018-12-11T02:49:10.626Z,10.87
2018-12-11T02:54:06.393Z,6.60
2018-12-11T02:59:02.279Z,7.60
2018-12-11T03:03:58.034Z,6.73
2018-12-11T03:08:53.824Z,7.60
2018-12-11T03:13:49.590Z,8.93
2018-12-11T03:18:45.362Z,8.47
2018-12-11T03:23:41.156Z,6.40
2018-12-11T03:28:36.916Z,8.30
2018-12-11T03:33:32.672Z,7.23
2018-12-11T03:38:28.449Z,6.20
2018-12-11T03:43:24.219Z,8.77
2018-12-11T03:48:19.961Z,5.27
2018-12-11T03:53:15.725Z,8.67
2018-12-11T03:58:11.736Z,7.03
2018-12-11T04:03:07.522Z,7.80
2018-12-11T04:08:03.315Z,10.50
2018-12-11T04:12:59.089Z,8.53
2018-12-11T04:17:54.866Z,6.50
2018-12-11T04:22:50.634Z,8.30
2018-12-11T04:27:46.431Z,9.80
2018-12-11T04:32:42.216Z,9.13
2018-12-11T04:37:37.989Z,4.43
2018-12-11T04:42:33.840Z,8.07
2018-12-11T04:47:29.602Z,13.87
2018-12-11T04:52:25.352Z,5.00
2018-12-11T04:57:21.145Z,6.93
2018-12-11T05:02:16.889Z,7.30
2018-12-11T05:07:12.659Z,7.50
2018-12-11T05:12:08.576Z,8.60
2018-12-11T05:17:04.365Z,8.07
2018-12-11T05:22:00.166Z,7.10
2018-12-11T05:26:56.155Z,9.07
2018-12-11T05:31:52.023Z,4.57
2018-12-11T05:36:47.792Z,7.47
2018-12-11T05:41:43.575Z,7.80
2018-12-11T05:46:39.347Z,7.23
2018-12-11T05:51:35.146Z,7.50
2018-12-11T05:56:30.942Z,8.37
2018-12-11T06:01:26.914Z,7.20
2018-12-11T06:06:22.705Z,5.47
2018-12-11T06:11:18.477Z,4.10
2018-12-11T06:16:14.607Z,10.00
2018-12-11T06:21:10.458Z,6.30
2018-12-11T06:26:06.271Z,4.77
2018-12-11T06:31:02.058Z,4.80
2018-12-11T06:35:57.825Z,8.33
2018-12-11T06:40:53.582Z,7.67
2018-12-11T06:45:49.409Z,8.13
2018-12-11T06:50:45.226Z,6.33
2018-12-11T06:55:41.164Z,6.73
2018-12-11T07:00:36.896Z,5.87
2018-12-11T07:05:32.762Z,6.67
2018-12-11T07:10:28.558Z,9.40
2018-12-11T07:15:24.318Z,6.07
2018-12-11T07:20:20.108Z,6.67
2018-12-11T07:25:15.851Z,10.00
2018-12-11T07:30:11.821Z,7.13
2018-12-11T07:35:07.601Z,6.90
2018-12-11T07:40:03.444Z,9.23
2018-12-11T07:44:59.227Z,10.90
2018-12-11T07:49:54.979Z,5.43
2018-12-11T07:54:50.754Z,8.93
2018-12-11T07:59:46.532Z,9.67
2018-12-11T08:04:42.302Z,8.30
2018-12-11T08:09:38.070Z,4.20
2018-12-11T08:14:33.869Z,8.57
2018-12-11T08:19:29.636Z,7.87
2018-12-11T08:24:25.377Z,6.67
2018-12-11T08:29:21.148Z,9.03
2018-12-11T08:34:16.941Z,6.63
2018-12-11T08:39:12.693Z,7.60
2018-12-11T08:44:08.494Z,9.00
2018-12-11T08:49:04.299Z,6.43
2018-12-11T08:54:00.096Z,10.87
2018-12-11T08:58:55.885Z,5.23
2018-12-11T09:03:51.644Z,7.37
2018-12-11T09:08:47.485Z,4.63
2018-12-11T09:13:44.096Z,7.53
2018-12-11T09:18:39.890Z,8.50
2018-12-11T09:23:35.664Z,9.93
2018-12-11T09:28:31.588Z,5.17
2018-12-11T09:33:27.336Z,8.17
2018-12-11T09:38:23.124Z,9.10
2018-12-11T09:43:18.853Z,8.93
2018-12-11T09:48:14.760Z,4.37
2018-12-11T09:53:10.553Z,8.07
2018-12-11T09:58:13.236Z,5.80
2018-12-11T10:03:09.030Z,3.63
2018-12-11T10:08:04.794Z,7.67
2018-12-11T10:13:00.770Z,4.70
2018-12-11T10:17:56.538Z,7.30
2018-12-11T10:22:52.306Z,8.47
2018-12-11T10:27:48.179Z,6.97
2018-12-11T10:32:45.956Z,4.30
2018-12-11T10:37:41.988Z,6.17
2018-12-11T10:42:37.766Z,4.90
2018-12-11T10:47:33.554Z,6.87
2018-12-11T10:52:29.310Z,8.70
2018-12-11T10:57:25.036Z,4.30
2018-12-11T11:02:22.955Z,5.13
2018-12-11T11:07:18.696Z,6.03
2018-12-11T11:12:14.429Z,6.77
2018-12-11T11:17:10.276Z,7.87
2018-12-11T11:22:06.008Z,2.77
2018-12-11T11:27:01.731Z,5.37
2018-12-11T11:31:57.526Z,5.67
2018-12-11T11:36:53.268Z,3.30
2018-12-11T11:41:49.004Z,2.63
2018-12-11T11:46:44.761Z,4.53
2018-12-11T11:51:40.488Z,7.67
2018-12-11T11:56:36.240Z,4.93
2018-12-11T12:01:32.072Z,6.83
2018-12-11T12:06:27.804Z,4.03
2018-12-11T12:11:23.552Z,5.67
2018-12-11T12:16:19.267Z,5.33
2018-12-11T12:21:15.000Z,5.37
2018-12-11T12:26:10.735Z,6.57
2018-12-11T12:31:06.818Z,4.17
2018-12-11T12:36:02.664Z,6.97
2018-12-11T12:40:58.401Z,5.77
2018-12-11T12:45:54.148Z,5.80
2018-12-11T12:50:49.913Z,5.40
2018-12-11T12:55:45.633Z,6.40
2018-12-11T13:00:41.557Z,9.90
2018-12-11T13:05:37.389Z,2.63
2018-12-11T13:10:33.802Z,5.53
2018-12-11T13:15:29.566Z,5.77
2018-12-11T13:20:25.289Z,4.50
2018-12-11T13:25:21.045Z,4.07
2018-12-11T13:30:16.768Z,4.37
2018-12-11T13:35:12.496Z,3.63
2018-12-11T13:40:08.245Z,3.90
2018-12-11T13:45:04.288Z,6.53
2018-12-11T13:50:00.028Z,6.00
2018-12-11T13:54:55.753Z,3.27
2018-12-11T13:59:51.472Z,4.37
2018-12-11T14:04:47.199Z,3.40
2018-12-11T14:09:42.932Z,6.23
2018-12-11T14:14:38.705Z,5.80
2018-12-11T14:19:34.464Z,4.50
2018-12-11T14:24:30.227Z,4.80
2018-12-11T14:29:26.172Z,4.23
2018-12-11T14:44:50.517Z,5.97
2018-12-11T14:49:46.276Z,4.37
2018-12-11T14:54:42.059Z,4.90
2018-12-11T14:59:37.800Z,7.43
2018-12-11T15:04:33.576Z,7.70
2018-12-11T15:09:35.394Z,7.87
2018-12-11T15:14:31.183Z,7.17
2018-12-11T15:19:26.946Z,8.77
2018-12-11T15:24:22.707Z,4.90
2018-12-11T15:29:18.461Z,6.00
2018-12-11T15:34:14.227Z,5.57
2018-12-11T15:39:10.020Z,4.07
2018-12-11T15:44:05.918Z,8.90
2018-12-11T15:49:01.726Z,8.40
2018-12-11T15:53:57.470Z,6.57
2018-12-11T15:58:53.223Z,6.97
2018-12-11T16:03:48.995Z,9.53
2018-12-11T16:08:44.743Z,6.33
2018-12-11T16:13:40.520Z,8.43
2018-12-11T16:18:36.293Z,3.73
2018-12-11T16:23:32.052Z,9.33
2018-12-11T16:28:28.939Z,8.30
2018-12-11T16:33:24.951Z,9.73
2018-12-11T16:38:20.737Z,8.23
2018-12-11T16:43:16.498Z,9.83
2018-12-11T16:48:12.277Z,8.37
2018-12-11T16:53:08.067Z,9.93
2018-12-11T16:58:03.834Z,7.47
2018-12-11T17:02:59.576Z,6.70
2018-12-11T17:07:55.351Z,9.93
2018-12-11T17:12:51.138Z,8.23
2018-12-11T17:17:47.147Z,8.00
2018-12-11T17:22:42.924Z,7.83
2018-12-11T17:27:38.668Z,7.40
2018-12-11T17:32:34.441Z,5.50
2018-12-11T17:37:30.196Z,7.83
2018-12-11T17:42:26.039Z,7.17
2018-12-11T17:47:21.820Z,6.03
2018-12-11T17:52:17.607Z,8.40
2018-12-11T17:57:13.382Z,7.47
2018-12-11T18:02:11.382Z,6.10
2018-12-11T18:07:07.151Z,8.77
2018-12-11T18:12:02.920Z,10.23
2018-12-11T18:16:58.692Z,5.70
2018-12-11T18:21:54.461Z,7.03
2018-12-11T18:26:50.213Z,6.80
2018-12-11T18:31:46.048Z,8.73
2018-12-11T18:36:42.213Z,6.73
2018-12-11T18:41:37.938Z,6.90
2018-12-11T18:46:33.719Z,8.83
2018-12-11T18:51:29.492Z,7.63
2018-12-11T18:56:25.234Z,9.53
2018-12-11T19:01:21.028Z,10.53
2018-12-11T19:06:16.808Z,8.83
2018-12-11T19:11:12.584Z,9.90
2018-12-11T19:16:08.369Z,8.97
2018-12-11T19:21:04.274Z,7.73
2018-12-11T19:26:00.076Z,7.27
2018-12-11T19:30:56.022Z,13.27
2018-12-11T19:35:51.912Z,9.17
2018-12-11T19:40:47.739Z,8.83
2018-12-11T19:45:43.532Z,9.90
2018-12-11T19:50:39.422Z,10.63
2018-12-11T19:55:35.267Z,8.37
2018-12-11T20:00:31.304Z,8.47
2018-12-11T20:05:27.118Z,10.10
2018-12-11T20:10:24.960Z,10.13
2018-12-11T20:15:20.740Z,8.17
2018-12-11T20:20:25.143Z,12.57
2018-12-11T20:25:20.973Z,11.57
2018-12-11T20:30:16.768Z,11.30
2018-12-11T20:35:12.669Z,10.50
2018-12-11T20:40:08.854Z,9.77
2018-12-11T20:45:04.764Z,10.60
2018-12-11T20:50:01.963Z,7.17
2018-12-11T20:54:57.803Z,10.27
2018-12-11T20:59:53.621Z,10.30
2018-12-11T21:04:49.405Z,11.77
2018-12-11T21:09:45.261Z,10.70
2018-12-11T21:14:41.000Z,12.47
2018-12-11T21:19:36.771Z,10.27
2018-12-11T21:24:32.564Z,14.37
2018-12-11T21:29:28.478Z,10.60
2018-12-11T21:34:24.240Z,12.97
2018-12-11T21:39:20.019Z,11.63
2018-12-11T21:44:15.819Z,13.07
2018-12-11T21:49:11.575Z,16.53
2018-12-11T21:54:07.386Z,19.20
2018-12-11T21:59:03.147Z,16.70
2018-12-11T22:03:58.923Z,12.10
2018-12-11T22:08:54.773Z,14.50
2018-12-11T22:13:50.606Z,12.90
2018-12-11T22:18:46.357Z,15.70
2018-12-11T22:23:42.138Z,17.17
2018-12-11T22:28:37.883Z,15.40
2018-12-11T22:33:33.641Z,12.40
2018-12-11T22:38:29.403Z,15.00
2018-12-11T22:43:25.175Z,12.23
2018-12-11T22:48:20.944Z,14.47
2018-12-11T22:53:16.738Z,14.43
2018-12-11T22:58:12.551Z,17.67
2018-12-11T23:03:08.271Z,13.30
2018-12-11T23:08:04.029Z,14.20
2018-12-11T23:12:59.778Z,12.07
2018-12-11T23:17:55.539Z,11.50
2018-12-11T23:22:51.317Z,16.60
2018-12-11T23:27:47.064Z,14.63
2018-12-11T23:32:42.819Z,17.00
2018-12-11T23:37:38.615Z,16.83
2018-12-11T23:42:34.383Z,14.73
2018-12-11T23:47:30.152Z,14.83
2018-12-11T23:57:39.104Z,14.67
